sensor_id;sensor_type;location;lat;lon;timestamp;temperature;humidity
10070;DHT22;5074;53.720;10.014;2023-06-24T00:00:56;16.30;99.90
10070;DHT22;5074;53.720;10.014;2023-06-24T00:03:24;16.30;99.90
10070;DHT22;5074;53.720;10.014;2023-06-24T00:05:53;16.30;99.90
10070;DHT22;5074;53.720;10.014;2023-06-24T00:08:23;16.30;99.90
10070;DHT22;5074;53.720;10.014;2023-06-24T00:11:02;16.30;99.90
10070;DHT22;5074;53.720;10.014;2023-06-24T00:13:30;16.20;99.90
10070;DHT22;5074;53.720;10.014;2023-06-24T00:15:58;16.20;99.90
10070;DHT22;5074;53.720;10.014;2023-06-24T00:18:27;16.20;99.90
10070;DHT22;5074;53.720;10.014;2023-06-24T00:20:55;16.20;99.90
10070;DHT22;5074;53.720;10.014;2023-06-24T00:23:24;16.10;99.90
10070;DHT22;5074;53.720;10.014;2023-06-24T00:25:52;16.10;99.90
10070;DHT22;5074;53.720;10.014;2023-06-24T00:28:22;16.10;99.90
10070;DHT22;5074;53.720;10.014;2023-06-24T00:30:51;16.00;99.90
10070;DHT22;5074;53.720;10.014;2023-06-24T00:33:19;16.00;99.90
10070;DHT22;5074;53.720;10.014;2023-06-24T00:35:47;15.90;99.90
10070;DHT22;5074;53.720;10.014;2023-06-24T00:38:15;15.90;99.90
10070;DHT22;5074;53.720;10.014;2023-06-24T00:40:43;15.90;99.90
10070;DHT22;5074;53.720;10.014;2023-06-24T00:43:12;15.80;99.90
10070;DHT22;5074;53.720;10.014;2023-06-24T00:45:42;15.80;99.90
10070;DHT22;5074;53.720;10.014;2023-06-24T00:48:14;15.70;99.90
10070;DHT22;5074;53.720;10.014;2023-06-24T00:50:42;15.70;99.90
10070;DHT22;5074;53.720;10.014;2023-06-24T00:53:12;15.70;99.90
10070;DHT22;5074;53.720;10.014;2023-06-24T00:55:40;15.70;99.90
10070;DHT22;5074;53.720;10.014;2023-06-24T00:58:08;15.60;99.90
10070;DHT22;5074;53.720;10.014;2023-06-24T01:00:36;15.60;99.90
10070;DHT22;5074;53.720;10.014;2023-06-24T01:03:06;15.50;99.90
10070;DHT22;5074;53.720;10.014;2023-06-24T01:05:35;15.50;99.90
10070;DHT22;5074;53.720;10.014;2023-06-24T01:08:03;15.40;99.90
10070;DHT22;5074;53.720;10.014;2023-06-24T01:10:31;15.40;99.90
10070;DHT22;5074;53.720;10.014;2023-06-24T01:13:00;15.40;99.90
10070;DHT22;5074;53.720;10.014;2023-06-24T01:15:28;15.40;99.90
10070;DHT22;5074;53.720;10.014;2023-06-24T01:17:57;15.30;99.90
10070;DHT22;5074;53.720;10.014;2023-06-24T01:20:33;15.30;99.90
10070;DHT22;5074;53.720;10.014;2023-06-24T01:23:27;15.30;99.90
10070;DHT22;5074;53.720;10.014;2023-06-24T01:26:20;15.20;99.90
10070;DHT22;5074;53.720;10.014;2023-06-24T01:29:06;15.20;99.90
10070;DHT22;5074;53.720;10.014;2023-06-24T01:32:15;15.10;99.90
10070;DHT22;5074;53.720;10.014;2023-06-24T01:34:48;15.10;99.90
10070;DHT22;5074;53.720;10.014;2023-06-24T01:37:26;15.10;99.90
10070;DHT22;5074;53.720;10.014;2023-06-24T01:40:01;15.10;99.90
10070;DHT22;5074;53.720;10.014;2023-06-24T01:42:37;15.00;99.90
10070;DHT22;5074;53.720;10.014;2023-06-24T01:45:09;15.00;99.90
10070;DHT22;5074;53.720;10.014;2023-06-24T01:47:43;15.00;99.90
10070;DHT22;5074;53.720;10.014;2023-06-24T01:50:13;15.00;99.90
10070;DHT22;5074;53.720;10.014;2023-06-24T01:52:44;15.00;99.90
10070;DHT22;5074;53.720;10.014;2023-06-24T01:55:15;14.90;99.90
10070;DHT22;5074;53.720;10.014;2023-06-24T01:57:46;14.90;99.90
10070;DHT22;5074;53.720;10.014;2023-06-24T02:00:15;14.90;99.90
10070;DHT22;5074;53.720;10.014;2023-06-24T02:02:46;14.90;99.90
10070;DHT22;5074;53.720;10.014;2023-06-24T02:05:15;14.90;99.90
10070;DHT22;5074;53.720;10.014;2023-06-24T02:07:46;14.90;99.90
10070;DHT22;5074;53.720;10.014;2023-06-24T02:10:17;14.80;99.90
10070;DHT22;5074;53.720;10.014;2023-06-24T02:12:47;14.90;99.90
10070;DHT22;5074;53.720;10.014;2023-06-24T02:15:17;14.80;99.90
10070;DHT22;5074;53.720;10.014;2023-06-24T02:17:48;14.80;99.90
10070;DHT22;5074;53.720;10.014;2023-06-24T02:20:18;14.80;99.90
10070;DHT22;5074;53.720;10.014;2023-06-24T02:22:48;14.80;99.90
10070;DHT22;5074;53.720;10.014;2023-06-24T02:25:16;14.70;99.90
10070;DHT22;5074;53.720;10.014;2023-06-24T02:27:45;14.80;99.90
10070;DHT22;5074;53.720;10.014;2023-06-24T02:30:14;14.70;99.90
10070;DHT22;5074;53.720;10.014;2023-06-24T02:32:43;14.70;99.90
10070;DHT22;5074;53.720;10.014;2023-06-24T02:35:12;14.60;99.90
10070;DHT22;5074;53.720;10.014;2023-06-24T02:37:41;14.50;99.90
10070;DHT22;5074;53.720;10.014;2023-06-24T02:40:09;14.50;99.90
10070;DHT22;5074;53.720;10.014;2023-06-24T02:42:38;14.40;99.90
10070;DHT22;5074;53.720;10.014;2023-06-24T02:45:06;14.30;99.90
10070;DHT22;5074;53.720;10.014;2023-06-24T02:47:35;14.10;99.90
10070;DHT22;5074;53.720;10.014;2023-06-24T02:50:04;14.10;99.90
10070;DHT22;5074;53.720;10.014;2023-06-24T02:52:36;14.00;99.90
10070;DHT22;5074;53.720;10.014;2023-06-24T02:55:05;14.00;99.90
10070;DHT22;5074;53.720;10.014;2023-06-24T02:57:35;13.80;99.90
10070;DHT22;5074;53.720;10.014;2023-06-24T03:00:05;13.70;99.90
10070;DHT22;5074;53.720;10.014;2023-06-24T03:02:38;13.70;99.90
10070;DHT22;5074;53.720;10.014;2023-06-24T03:05:08;13.70;99.90
10070;DHT22;5074;53.720;10.014;2023-06-24T03:07:39;13.70;99.90
10070;DHT22;5074;53.720;10.014;2023-06-24T03:10:09;13.70;99.90
10070;DHT22;5074;53.720;10.014;2023-06-24T03:12:37;13.60;99.90
10070;DHT22;5074;53.720;10.014;2023-06-24T03:15:06;13.80;99.90
10070;DHT22;5074;53.720;10.014;2023-06-24T03:17:35;13.70;99.90
10070;DHT22;5074;53.720;10.014;2023-06-24T03:20:05;13.80;99.90
10070;DHT22;5074;53.720;10.014;2023-06-24T03:22:34;13.70;99.90
10070;DHT22;5074;53.720;10.014;2023-06-24T03:25:04;13.60;99.90
10070;DHT22;5074;53.720;10.014;2023-06-24T03:27:33;13.50;99.90
10070;DHT22;5074;53.720;10.014;2023-06-24T03:30:01;13.50;99.90
10070;DHT22;5074;53.720;10.014;2023-06-24T03:32:29;13.40;99.90
10070;DHT22;5074;53.720;10.014;2023-06-24T03:34:57;13.50;99.90
10070;DHT22;5074;53.720;10.014;2023-06-24T03:37:25;13.60;99.90
10070;DHT22;5074;53.720;10.014;2023-06-24T03:39:53;13.60;99.90
10070;DHT22;5074;53.720;10.014;2023-06-24T03:42:24;13.60;99.90
10070;DHT22;5074;53.720;10.014;2023-06-24T03:44:52;13.60;99.90
10070;DHT22;5074;53.720;10.014;2023-06-24T03:47:20;13.60;99.90
10070;DHT22;5074;53.720;10.014;2023-06-24T03:49:48;13.60;99.90
10070;DHT22;5074;53.720;10.014;2023-06-24T03:52:16;13.70;99.90
10070;DHT22;5074;53.720;10.014;2023-06-24T03:54:44;13.70;99.90
10070;DHT22;5074;53.720;10.014;2023-06-24T03:57:12;13.80;99.90
10070;DHT22;5074;53.720;10.014;2023-06-24T03:59:42;14.00;99.90
10070;DHT22;5074;53.720;10.014;2023-06-24T04:02:10;14.00;99.90
10070;DHT22;5074;53.720;10.014;2023-06-24T04:04:40;14.10;99.90
10070;DHT22;5074;53.720;10.014;2023-06-24T04:07:08;14.10;99.90
10070;DHT22;5074;53.720;10.014;2023-06-24T04:09:36;14.30;99.90
10070;DHT22;5074;53.720;10.014;2023-06-24T04:12:05;14.30;99.90
10070;DHT22;5074;53.720;10.014;2023-06-24T04:14:33;14.40;99.90
10070;DHT22;5074;53.720;10.014;2023-06-24T04:17:03;14.50;99.90
10070;DHT22;5074;53.720;10.014;2023-06-24T04:19:31;14.60;99.90
10070;DHT22;5074;53.720;10.014;2023-06-24T04:21:59;14.70;99.90
10070;DHT22;5074;53.720;10.014;2023-06-24T04:24:27;14.80;99.90
10070;DHT22;5074;53.720;10.014;2023-06-24T04:26:55;14.80;99.90
10070;DHT22;5074;53.720;10.014;2023-06-24T04:29:23;14.90;99.90
10070;DHT22;5074;53.720;10.014;2023-06-24T04:31:51;14.90;99.90
10070;DHT22;5074;53.720;10.014;2023-06-24T04:34:21;15.00;99.90
10070;DHT22;5074;53.720;10.014;2023-06-24T04:36:49;15.00;99.90
10070;DHT22;5074;53.720;10.014;2023-06-24T04:39:17;15.00;99.90
10070;DHT22;5074;53.720;10.014;2023-06-24T04:41:45;15.00;99.90
10070;DHT22;5074;53.720;10.014;2023-06-24T04:44:13;15.10;99.90
10070;DHT22;5074;53.720;10.014;2023-06-24T04:46:41;15.00;99.90
10070;DHT22;5074;53.720;10.014;2023-06-24T04:49:10;15.10;99.90
10070;DHT22;5074;53.720;10.014;2023-06-24T04:51:39;15.10;99.90
10070;DHT22;5074;53.720;10.014;2023-06-24T04:54:08;15.10;99.90
10070;DHT22;5074;53.720;10.014;2023-06-24T04:56:38;15.20;99.90
10070;DHT22;5074;53.720;10.014;2023-06-24T04:59:07;15.20;99.90
10070;DHT22;5074;53.720;10.014;2023-06-24T05:01:35;15.30;99.90
10070;DHT22;5074;53.720;10.014;2023-06-24T05:04:03;15.30;99.90
10070;DHT22;5074;53.720;10.014;2023-06-24T05:06:31;15.40;99.90
10070;DHT22;5074;53.720;10.014;2023-06-24T05:09:00;15.40;99.90
10070;DHT22;5074;53.720;10.014;2023-06-24T05:11:28;15.50;99.90
10070;DHT22;5074;53.720;10.014;2023-06-24T05:13:56;15.50;99.90
10070;DHT22;5074;53.720;10.014;2023-06-24T05:16:25;15.50;99.90
10070;DHT22;5074;53.720;10.014;2023-06-24T05:18:53;15.50;99.90
10070;DHT22;5074;53.720;10.014;2023-06-24T05:21:21;15.60;99.90
10070;DHT22;5074;53.720;10.014;2023-06-24T05:23:49;15.70;99.90
10070;DHT22;5074;53.720;10.014;2023-06-24T05:26:19;15.70;99.90
10070;DHT22;5074;53.720;10.014;2023-06-24T05:28:47;15.80;99.90
10070;DHT22;5074;53.720;10.014;2023-06-24T05:31:15;15.80;99.90
10070;DHT22;5074;53.720;10.014;2023-06-24T05:33:43;15.90;99.90
10070;DHT22;5074;53.720;10.014;2023-06-24T05:36:11;15.90;99.90
10070;DHT22;5074;53.720;10.014;2023-06-24T05:38:39;15.90;99.90
10070;DHT22;5074;53.720;10.014;2023-06-24T05:41:07;15.90;99.90
10070;DHT22;5074;53.720;10.014;2023-06-24T05:43:37;16.00;99.90
10070;DHT22;5074;53.720;10.014;2023-06-24T05:46:07;16.00;99.90
10070;DHT22;5074;53.720;10.014;2023-06-24T05:48:36;16.10;99.90
10070;DHT22;5074;53.720;10.014;2023-06-24T05:51:04;16.10;99.90
10070;DHT22;5074;53.720;10.014;2023-06-24T05:53:32;16.20;99.90
10070;DHT22;5074;53.720;10.014;2023-06-24T05:56:00;16.30;99.90
10070;DHT22;5074;53.720;10.014;2023-06-24T05:58:28;16.20;99.90
10070;DHT22;5074;53.720;10.014;2023-06-24T06:00:57;16.30;99.90
10070;DHT22;5074;53.720;10.014;2023-06-24T06:03:27;16.30;99.90
10070;DHT22;5074;53.720;10.014;2023-06-24T06:05:55;16.30;99.90
10070;DHT22;5074;53.720;10.014;2023-06-24T06:08:23;16.40;99.90
10070;DHT22;5074;53.720;10.014;2023-06-24T06:10:51;16.40;99.90
10070;DHT22;5074;53.720;10.014;2023-06-24T06:13:20;16.50;99.90
10070;DHT22;5074;53.720;10.014;2023-06-24T06:15:48;16.50;99.90
10070;DHT22;5074;53.720;10.014;2023-06-24T06:18:17;16.50;99.90
10070;DHT22;5074;53.720;10.014;2023-06-24T06:20:45;16.50;99.90
10070;DHT22;5074;53.720;10.014;2023-06-24T06:23:14;16.60;99.90
10070;DHT22;5074;53.720;10.014;2023-06-24T06:25:43;16.60;99.90
10070;DHT22;5074;53.720;10.014;2023-06-24T06:28:14;16.70;99.90
10070;DHT22;5074;53.720;10.014;2023-06-24T06:30:43;16.80;99.90
10070;DHT22;5074;53.720;10.014;2023-06-24T06:33:11;16.80;99.90
10070;DHT22;5074;53.720;10.014;2023-06-24T06:35:40;16.70;99.90
10070;DHT22;5074;53.720;10.014;2023-06-24T06:38:09;16.70;99.90
10070;DHT22;5074;53.720;10.014;2023-06-24T06:40:37;16.80;99.90
10070;DHT22;5074;53.720;10.014;2023-06-24T06:43:06;16.80;99.90
10070;DHT22;5074;53.720;10.014;2023-06-24T06:45:34;16.90;99.90
10070;DHT22;5074;53.720;10.014;2023-06-24T06:48:03;17.00;99.90
10070;DHT22;5074;53.720;10.014;2023-06-24T06:50:33;17.10;99.90
10070;DHT22;5074;53.720;10.014;2023-06-24T06:53:03;17.00;99.90
10070;DHT22;5074;53.720;10.014;2023-06-24T06:55:31;17.10;99.90
10070;DHT22;5074;53.720;10.014;2023-06-24T06:58:00;17.00;99.90
10070;DHT22;5074;53.720;10.014;2023-06-24T07:00:28;17.10;99.90
10070;DHT22;5074;53.720;10.014;2023-06-24T07:02:56;17.00;99.90
10070;DHT22;5074;53.720;10.014;2023-06-24T07:05:24;17.10;99.90
10070;DHT22;5074;53.720;10.014;2023-06-24T07:07:52;17.20;99.90
10070;DHT22;5074;53.720;10.014;2023-06-24T07:10:21;17.20;99.90
10070;DHT22;5074;53.720;10.014;2023-06-24T07:12:50;17.30;99.90
10070;DHT22;5074;53.720;10.014;2023-06-24T07:15:24;17.30;99.90
10070;DHT22;5074;53.720;10.014;2023-06-24T07:17:53;17.40;99.90
10070;DHT22;5074;53.720;10.014;2023-06-24T07:20:21;17.50;99.90
10070;DHT22;5074;53.720;10.014;2023-06-24T07:22:50;17.60;99.90
10070;DHT22;5074;53.720;10.014;2023-06-24T07:25:18;17.70;99.90
10070;DHT22;5074;53.720;10.014;2023-06-24T07:27:47;17.70;99.90
10070;DHT22;5074;53.720;10.014;2023-06-24T07:30:15;17.70;99.90
10070;DHT22;5074;53.720;10.014;2023-06-24T07:32:43;17.70;99.90
10070;DHT22;5074;53.720;10.014;2023-06-24T07:35:12;17.80;99.90
10070;DHT22;5074;53.720;10.014;2023-06-24T07:37:42;17.80;99.90
10070;DHT22;5074;53.720;10.014;2023-06-24T07:40:10;17.90;99.90
10070;DHT22;5074;53.720;10.014;2023-06-24T07:42:38;17.80;99.90
10070;DHT22;5074;53.720;10.014;2023-06-24T07:45:08;17.80;99.90
10070;DHT22;5074;53.720;10.014;2023-06-24T07:47:37;17.90;99.90
10070;DHT22;5074;53.720;10.014;2023-06-24T07:50:05;18.00;99.90
10070;DHT22;5074;53.720;10.014;2023-06-24T07:52:35;18.20;99.90
10070;DHT22;5074;53.720;10.014;2023-06-24T07:55:03;18.40;99.90
10070;DHT22;5074;53.720;10.014;2023-06-24T07:57:32;18.30;99.90
10070;DHT22;5074;53.720;10.014;2023-06-24T08:00:00;18.40;99.90
10070;DHT22;5074;53.720;10.014;2023-06-24T08:02:30;18.40;99.90
10070;DHT22;5074;53.720;10.014;2023-06-24T08:04:58;18.40;99.90
10070;DHT22;5074;53.720;10.014;2023-06-24T08:07:26;18.40;99.90
10070;DHT22;5074;53.720;10.014;2023-06-24T08:09:54;18.50;99.90
10070;DHT22;5074;53.720;10.014;2023-06-24T08:12:22;18.50;99.90
10070;DHT22;5074;53.720;10.014;2023-06-24T08:14:51;18.50;99.90
10070;DHT22;5074;53.720;10.014;2023-06-24T08:17:19;18.50;99.90
10070;DHT22;5074;53.720;10.014;2023-06-24T08:19:48;18.50;99.90
10070;DHT22;5074;53.720;10.014;2023-06-24T08:22:16;18.60;99.90
10070;DHT22;5074;53.720;10.014;2023-06-24T08:24:44;18.80;99.90
10070;DHT22;5074;53.720;10.014;2023-06-24T08:27:12;18.80;99.90
10070;DHT22;5074;53.720;10.014;2023-06-24T08:29:41;18.80;99.90
10070;DHT22;5074;53.720;10.014;2023-06-24T08:32:09;18.80;99.90
10070;DHT22;5074;53.720;10.014;2023-06-24T08:34:37;18.90;99.90
10070;DHT22;5074;53.720;10.014;2023-06-24T08:37:07;19.00;99.90
10070;DHT22;5074;53.720;10.014;2023-06-24T08:39:35;19.10;99.90
10070;DHT22;5074;53.720;10.014;2023-06-24T08:42:05;19.10;99.90
10070;DHT22;5074;53.720;10.014;2023-06-24T08:44:33;19.30;99.90
10070;DHT22;5074;53.720;10.014;2023-06-24T08:47:01;19.30;99.90
10070;DHT22;5074;53.720;10.014;2023-06-24T08:49:30;19.30;99.90
10070;DHT22;5074;53.720;10.014;2023-06-24T08:52:02;19.40;99.90
10070;DHT22;5074;53.720;10.014;2023-06-24T08:54:35;19.40;99.90
10070;DHT22;5074;53.720;10.014;2023-06-24T08:57:05;19.50;99.90
10070;DHT22;5074;53.720;10.014;2023-06-24T08:59:36;19.60;99.90
10070;DHT22;5074;53.720;10.014;2023-06-24T09:02:05;19.60;99.90
10070;DHT22;5074;53.720;10.014;2023-06-24T09:04:33;19.60;99.90
10070;DHT22;5074;53.720;10.014;2023-06-24T09:07:02;19.60;99.90
10070;DHT22;5074;53.720;10.014;2023-06-24T09:09:41;19.70;99.90
10070;DHT22;5074;53.720;10.014;2023-06-24T09:12:10;19.80;99.90
10070;DHT22;5074;53.720;10.014;2023-06-24T09:14:42;19.80;99.90
10070;DHT22;5074;53.720;10.014;2023-06-24T09:17:16;19.90;99.90
10070;DHT22;5074;53.720;10.014;2023-06-24T09:19:45;20.10;99.90
10070;DHT22;5074;53.720;10.014;2023-06-24T09:22:13;20.00;99.90
10070;DHT22;5074;53.720;10.014;2023-06-24T09:24:45;20.00;99.90
10070;DHT22;5074;53.720;10.014;2023-06-24T09:27:14;20.20;99.90
10070;DHT22;5074;53.720;10.014;2023-06-24T09:29:46;20.30;99.90
10070;DHT22;5074;53.720;10.014;2023-06-24T09:32:14;20.40;99.90
10070;DHT22;5074;53.720;10.014;2023-06-24T09:34:43;20.30;99.90
10070;DHT22;5074;53.720;10.014;2023-06-24T09:37:12;20.40;99.90
10070;DHT22;5074;53.720;10.014;2023-06-24T09:39:50;20.40;99.90
10070;DHT22;5074;53.720;10.014;2023-06-24T09:42:20;20.40;99.90
10070;DHT22;5074;53.720;10.014;2023-06-24T09:44:52;20.50;99.90
10070;DHT22;5074;53.720;10.014;2023-06-24T09:47:21;20.50;99.90
10070;DHT22;5074;53.720;10.014;2023-06-24T09:49:52;20.50;99.90
10070;DHT22;5074;53.720;10.014;2023-06-24T09:52:20;20.50;99.90
10070;DHT22;5074;53.720;10.014;2023-06-24T09:54:51;20.60;99.90
10070;DHT22;5074;53.720;10.014;2023-06-24T09:57:23;20.50;99.90
10070;DHT22;5074;53.720;10.014;2023-06-24T09:59:57;20.60;99.90
10070;DHT22;5074;53.720;10.014;2023-06-24T10:02:27;20.70;99.90
10070;DHT22;5074;53.720;10.014;2023-06-24T10:04:57;20.80;99.90
10070;DHT22;5074;53.720;10.014;2023-06-24T10:07:27;20.70;99.90
10070;DHT22;5074;53.720;10.014;2023-06-24T10:09:57;20.80;99.90
10070;DHT22;5074;53.720;10.014;2023-06-24T10:12:25;20.80;99.90
10070;DHT22;5074;53.720;10.014;2023-06-24T10:14:55;20.90;99.90
10070;DHT22;5074;53.720;10.014;2023-06-24T10:17:23;21.00;99.90
10070;DHT22;5074;53.720;10.014;2023-06-24T10:19:51;21.20;99.90
10070;DHT22;5074;53.720;10.014;2023-06-24T10:22:21;21.20;99.90
10070;DHT22;5074;53.720;10.014;2023-06-24T10:24:51;21.30;99.90
10070;DHT22;5074;53.720;10.014;2023-06-24T10:27:21;21.30;99.90
10070;DHT22;5074;53.720;10.014;2023-06-24T10:29:50;21.30;99.90
10070;DHT22;5074;53.720;10.014;2023-06-24T10:32:21;21.50;99.90
10070;DHT22;5074;53.720;10.014;2023-06-24T10:34:53;21.60;99.90
10070;DHT22;5074;53.720;10.014;2023-06-24T10:37:23;21.70;99.90
10070;DHT22;5074;53.720;10.014;2023-06-24T10:39:52;21.80;99.90
10070;DHT22;5074;53.720;10.014;2023-06-24T10:42:26;21.80;99.90
10070;DHT22;5074;53.720;10.014;2023-06-24T10:44:56;21.90;99.90
10070;DHT22;5074;53.720;10.014;2023-06-24T10:47:26;22.00;99.90
10070;DHT22;5074;53.720;10.014;2023-06-24T10:49:55;22.10;99.90
10070;DHT22;5074;53.720;10.014;2023-06-24T10:52:23;22.20;99.90
10070;DHT22;5074;53.720;10.014;2023-06-24T10:54:52;22.10;99.90
10070;DHT22;5074;53.720;10.014;2023-06-24T10:57:21;22.20;99.90
10070;DHT22;5074;53.720;10.014;2023-06-24T10:59:52;22.30;99.90
10070;DHT22;5074;53.720;10.014;2023-06-24T11:02:22;22.20;99.90
10070;DHT22;5074;53.720;10.014;2023-06-24T11:04:52;22.10;99.90
10070;DHT22;5074;53.720;10.014;2023-06-24T11:07:22;22.20;99.90
10070;DHT22;5074;53.720;10.014;2023-06-24T11:09:52;22.20;99.90
10070;DHT22;5074;53.720;10.014;2023-06-24T11:12:23;22.20;99.90
10070;DHT22;5074;53.720;10.014;2023-06-24T11:14:56;22.30;99.90
10070;DHT22;5074;53.720;10.014;2023-06-24T11:17:25;22.50;99.90
10070;DHT22;5074;53.720;10.014;2023-06-24T11:19:54;22.60;99.90
10070;DHT22;5074;53.720;10.014;2023-06-24T11:22:23;22.80;99.90
10070;DHT22;5074;53.720;10.014;2023-06-24T11:24:53;22.80;99.90
10070;DHT22;5074;53.720;10.014;2023-06-24T11:27:25;22.60;99.90
10070;DHT22;5074;53.720;10.014;2023-06-24T11:29:53;22.70;99.90
10070;DHT22;5074;53.720;10.014;2023-06-24T11:32:34;22.90;99.90
10070;DHT22;5074;53.720;10.014;2023-06-24T11:35:04;22.80;99.90
10070;DHT22;5074;53.720;10.014;2023-06-24T11:37:33;22.80;99.90
10070;DHT22;5074;53.720;10.014;2023-06-24T11:40:01;22.90;99.90
10070;DHT22;5074;53.720;10.014;2023-06-24T11:42:31;22.90;99.90
10070;DHT22;5074;53.720;10.014;2023-06-24T11:45:01;23.00;99.90
10070;DHT22;5074;53.720;10.014;2023-06-24T11:47:33;23.10;99.90
10070;DHT22;5074;53.720;10.014;2023-06-24T11:50:03;23.20;99.90
10070;DHT22;5074;53.720;10.014;2023-06-24T11:52:32;23.30;99.90
10070;DHT22;5074;53.720;10.014;2023-06-24T11:55:10;23.50;99.90
10070;DHT22;5074;53.720;10.014;2023-06-24T11:57:46;23.40;99.90
10070;DHT22;5074;53.720;10.014;2023-06-24T12:00:18;23.60;99.90
10070;DHT22;5074;53.720;10.014;2023-06-24T12:02:49;23.80;99.90
10070;DHT22;5074;53.720;10.014;2023-06-24T12:05:22;23.90;99.90
10070;DHT22;5074;53.720;10.014;2023-06-24T12:07:54;24.10;99.90
10070;DHT22;5074;53.720;10.014;2023-06-24T12:10:23;24.20;99.90
10070;DHT22;5074;53.720;10.014;2023-06-24T12:12:51;24.10;99.90
10070;DHT22;5074;53.720;10.014;2023-06-24T12:15:21;24.10;99.90
10070;DHT22;5074;53.720;10.014;2023-06-24T12:17:49;24.30;99.90
10070;DHT22;5074;53.720;10.014;2023-06-24T12:20:17;24.50;99.90
10070;DHT22;5074;53.720;10.014;2023-06-24T12:22:46;24.40;99.90
10070;DHT22;5074;53.720;10.014;2023-06-24T12:25:15;24.30;99.90
10070;DHT22;5074;53.720;10.014;2023-06-24T12:27:44;24.20;99.90
10070;DHT22;5074;53.720;10.014;2023-06-24T12:30:13;24.50;99.90
10070;DHT22;5074;53.720;10.014;2023-06-24T12:32:44;24.40;99.90
10070;DHT22;5074;53.720;10.014;2023-06-24T12:35:12;24.30;99.90
10070;DHT22;5074;53.720;10.014;2023-06-24T12:37:40;24.30;99.90
10070;DHT22;5074;53.720;10.014;2023-06-24T12:40:09;24.70;99.90
10070;DHT22;5074;53.720;10.014;2023-06-24T12:42:37;25.40;99.90
10070;DHT22;5074;53.720;10.014;2023-06-24T12:45:06;26.20;99.90
10070;DHT22;5074;53.720;10.014;2023-06-24T12:47:35;26.50;99.90
10070;DHT22;5074;53.720;10.014;2023-06-24T12:50:05;26.00;99.90
10070;DHT22;5074;53.720;10.014;2023-06-24T12:52:35;25.60;99.90
10070;DHT22;5074;53.720;10.014;2023-06-24T12:55:05;25.60;99.90
10070;DHT22;5074;53.720;10.014;2023-06-24T12:57:34;26.10;99.90
10070;DHT22;5074;53.720;10.014;2023-06-24T13:00:04;25.80;99.90
10070;DHT22;5074;53.720;10.014;2023-06-24T13:02:33;25.30;99.90
10070;DHT22;5074;53.720;10.014;2023-06-24T13:05:02;24.90;99.90
10070;DHT22;5074;53.720;10.014;2023-06-24T13:07:31;24.60;99.90
10070;DHT22;5074;53.720;10.014;2023-06-24T13:10:00;24.50;99.90
10070;DHT22;5074;53.720;10.014;2023-06-24T13:12:29;24.40;99.90
10070;DHT22;5074;53.720;10.014;2023-06-24T13:14:57;24.40;99.90
10070;DHT22;5074;53.720;10.014;2023-06-24T13:17:25;24.40;99.90
10070;DHT22;5074;53.720;10.014;2023-06-24T13:19:54;24.30;99.90
10070;DHT22;5074;53.720;10.014;2023-06-24T13:22:23;24.10;99.90
10070;DHT22;5074;53.720;10.014;2023-06-24T13:24:52;24.30;99.90
10070;DHT22;5074;53.720;10.014;2023-06-24T13:27:21;25.50;99.90
10070;DHT22;5074;53.720;10.014;2023-06-24T13:29:49;27.30;99.90
10070;DHT22;5074;53.720;10.014;2023-06-24T13:32:17;28.20;99.90
10070;DHT22;5074;53.720;10.014;2023-06-24T13:34:46;28.70;99.90
10070;DHT22;5074;53.720;10.014;2023-06-24T13:37:15;29.50;99.60
10070;DHT22;5074;53.720;10.014;2023-06-24T13:39:43;29.40;99.20
10070;DHT22;5074;53.720;10.014;2023-06-24T13:42:12;28.60;99.20
10070;DHT22;5074;53.720;10.014;2023-06-24T13:44:40;27.60;99.90
10070;DHT22;5074;53.720;10.014;2023-06-24T13:47:08;26.70;99.90
10070;DHT22;5074;53.720;10.014;2023-06-24T13:49:37;26.00;99.90
10070;DHT22;5074;53.720;10.014;2023-06-24T13:52:05;25.70;99.90
10070;DHT22;5074;53.720;10.014;2023-06-24T13:54:34;26.50;99.90
10070;DHT22;5074;53.720;10.014;2023-06-24T13:57:02;28.10;99.90
10070;DHT22;5074;53.720;10.014;2023-06-24T13:59:32;29.30;99.60
10070;DHT22;5074;53.720;10.014;2023-06-24T14:02:00;29.20;98.90
10070;DHT22;5074;53.720;10.014;2023-06-24T14:04:28;28.30;99.40
10070;DHT22;5074;53.720;10.014;2023-06-24T14:06:56;28.40;99.90
10070;DHT22;5074;53.720;10.014;2023-06-24T14:09:24;29.40;98.90
10070;DHT22;5074;53.720;10.014;2023-06-24T14:11:52;29.90;98.40
10070;DHT22;5074;53.720;10.014;2023-06-24T14:14:21;30.90;97.10
10070;DHT22;5074;53.720;10.014;2023-06-24T14:16:51;30.50;96.00
10070;DHT22;5074;53.720;10.014;2023-06-24T14:19:19;29.40;96.50
10070;DHT22;5074;53.720;10.014;2023-06-24T14:21:50;29.10;97.20
10070;DHT22;5074;53.720;10.014;2023-06-24T14:24:18;29.90;96.80
10070;DHT22;5074;53.720;10.014;2023-06-24T14:26:46;30.80;95.50
10070;DHT22;5074;53.720;10.014;2023-06-24T14:29:16;31.60;95.00
10070;DHT22;5074;53.720;10.014;2023-06-24T14:31:44;31.60;93.30
10070;DHT22;5074;53.720;10.014;2023-06-24T14:34:13;31.80;93.80
10070;DHT22;5074;53.720;10.014;2023-06-24T14:36:41;31.60;93.60
10070;DHT22;5074;53.720;10.014;2023-06-24T14:39:12;31.70;93.30
10070;DHT22;5074;53.720;10.014;2023-06-24T14:41:41;31.30;93.50
10070;DHT22;5074;53.720;10.014;2023-06-24T14:44:09;30.50;94.10
10070;DHT22;5074;53.720;10.014;2023-06-24T14:46:38;30.10;94.50
10070;DHT22;5074;53.720;10.014;2023-06-24T14:49:06;30.60;94.60
10070;DHT22;5074;53.720;10.014;2023-06-24T14:51:35;31.10;93.20
10070;DHT22;5074;53.720;10.014;2023-06-24T14:54:04;30.20;94.20
10070;DHT22;5074;53.720;10.014;2023-06-24T14:56:32;29.50;94.60
10070;DHT22;5074;53.720;10.014;2023-06-24T14:59:00;28.70;95.30
10070;DHT22;5074;53.720;10.014;2023-06-24T15:01:28;28.00;96.20
10070;DHT22;5074;53.720;10.014;2023-06-24T15:03:56;28.70;95.40
10070;DHT22;5074;53.720;10.014;2023-06-24T15:06:24;29.50;95.30
10070;DHT22;5074;53.720;10.014;2023-06-24T15:08:54;30.10;94.60
10070;DHT22;5074;53.720;10.014;2023-06-24T15:11:22;28.90;94.90
10070;DHT22;5074;53.720;10.014;2023-06-24T15:13:50;28.10;95.70
10070;DHT22;5074;53.720;10.014;2023-06-24T15:16:18;27.60;96.70
10070;DHT22;5074;53.720;10.014;2023-06-24T15:18:46;27.20;97.30
10070;DHT22;5074;53.720;10.014;2023-06-24T15:21:16;28.00;97.30
10070;DHT22;5074;53.720;10.014;2023-06-24T15:24:04;29.20;95.90
10070;DHT22;5074;53.720;10.014;2023-06-24T15:26:32;30.30;95.60
10070;DHT22;5074;53.720;10.014;2023-06-24T15:29:00;29.90;94.60
10070;DHT22;5074;53.720;10.014;2023-06-24T15:31:28;29.30;95.10
10070;DHT22;5074;53.720;10.014;2023-06-24T15:33:56;29.20;95.60
10070;DHT22;5074;53.720;10.014;2023-06-24T15:36:25;30.00;95.10
10070;DHT22;5074;53.720;10.014;2023-06-24T15:38:55;29.50;94.80
10070;DHT22;5074;53.720;10.014;2023-06-24T15:41:25;28.90;95.40
10070;DHT22;5074;53.720;10.014;2023-06-24T15:43:53;28.30;96.00